Terminal Aerodrome Forecast
Issued by NWS Melbourne, FL

Home | Current Version | Previous Version | Text Only | Print | Product List | Glossary On
Versions: 1 2 3 4 5 6 7 8 9 10 11 12 13 14 15 16 17
000
FTUS42 KMLB 102300
TAFMLB
TAF
KMLB 102320Z 1100/1124 16007KT P6SM VCSH FEW040 BKN120
     FM110200 19003KT P6SM BKN250
     FM111200 16005KT P6SM FEW025 SCT250
     FM111500 11011KT P6SM SCT030 SCT150 BKN250=

USA.gov is the U.S. government's official web portal to all federal, state and local government web resources and services.